createdAt,value
2022-12-17T00:02:37.498Z,95.20
2022-12-17T00:05:24.303Z,94.90
2022-12-17T00:08:15.293Z,94.80
2022-12-17T00:11:00.744Z,94.90
2022-12-17T00:13:46.335Z,94.90
2022-12-17T00:16:33.532Z,94.80
2022-12-17T00:19:18.900Z,94.90
2022-12-17T00:22:04.478Z,94.70
2022-12-17T00:24:49.906Z,94.60
2022-12-17T00:27:35.214Z,94.50
2022-12-17T00:30:20.746Z,94.50
2022-12-17T00:33:07.492Z,94.40
2022-12-17T00:35:53.016Z,94.50
2022-12-17T00:38:38.978Z,94.50
2022-12-17T00:41:24.655Z,94.60
2022-12-17T00:44:11.206Z,94.20
2022-12-17T00:47:04.986Z,94.50
2022-12-17T00:49:52.049Z,94.60
2022-12-17T00:52:38.188Z,94.50
2022-12-17T00:55:24.597Z,94.30
2022-12-17T00:58:12.027Z,94.10
2022-12-17T01:00:58.073Z,94.10
2022-12-17T01:03:44.538Z,94.10
2022-12-17T01:06:31.214Z,94.10
2022-12-17T01:09:17.205Z,93.90
2022-12-17T01:12:02.699Z,93.90
2022-12-17T01:14:48.363Z,93.80
2022-12-17T01:17:33.993Z,93.90
2022-12-17T01:20:19.337Z,93.90
2022-12-17T01:23:07.242Z,94.00
2022-12-17T01:25:52.698Z,93.90
2022-12-17T01:28:43.227Z,93.90
2022-12-17T01:31:34.695Z,94.00
2022-12-17T01:34:20.764Z,94.10
2022-12-17T01:37:06.599Z,94.10
2022-12-17T01:39:53.919Z,94.00
2022-12-17T01:42:39.362Z,94.10
2022-12-17T01:45:29.202Z,93.90
2022-12-17T01:48:18.770Z,93.90
2022-12-17T01:51:09.994Z,93.80
2022-12-17T01:53:59.507Z,93.80
2022-12-17T01:56:47.146Z,93.70
2022-12-17T01:59:33.516Z,93.70
2022-12-17T02:02:19.141Z,93.70
2022-12-17T02:05:04.964Z,93.80
2022-12-17T02:07:58.930Z,93.70
2022-12-17T02:10:48.393Z,93.40
2022-12-17T02:13:38.841Z,93.40
2022-12-17T02:16:31.015Z,93.50
2022-12-17T02:19:24.798Z,93.50
2022-12-17T02:22:16.190Z,93.60
2022-12-17T02:25:14.697Z,93.50
2022-12-17T02:28:02.738Z,93.60
2022-12-17T02:30:50.286Z,93.60
2022-12-17T02:33:36.731Z,93.70
2022-12-17T02:36:25.254Z,93.80
2022-12-17T02:39:11.234Z,93.50
2022-12-17T02:42:02.341Z,93.50
2022-12-17T02:44:50.955Z,93.40
2022-12-17T02:47:50.322Z,93.20
2022-12-17T02:50:36.126Z,93.00
2022-12-17T02:53:22.955Z,93.00
2022-12-17T02:56:08.573Z,93.10
2022-12-17T02:58:56.530Z,93.30
2022-12-17T03:01:43.399Z,93.40
2022-12-17T03:04:40.437Z,93.00
2022-12-17T03:07:26.040Z,93.00
2022-12-17T03:10:11.404Z,93.30
2022-12-17T03:13:00.791Z,93.30
2022-12-17T03:15:46.325Z,92.90
2022-12-17T03:18:33.880Z,92.90
2022-12-17T03:21:19.338Z,92.80
2022-12-17T03:24:04.841Z,92.70
2022-12-17T03:26:50.609Z,92.50
2022-12-17T03:29:36.002Z,92.60
2022-12-17T03:32:21.971Z,92.50
2022-12-17T03:35:08.731Z,92.50
2022-12-17T03:37:54.323Z,92.50
2022-12-17T03:40:39.655Z,92.40
2022-12-17T03:43:25.654Z,92.50
2022-12-17T03:46:12.055Z,92.50
2022-12-17T03:48:57.792Z,92.40
2022-12-17T03:51:44.521Z,92.50
2022-12-17T03:54:29.914Z,92.40
2022-12-17T03:57:16.398Z,92.30
2022-12-17T04:00:16.701Z,92.30
2022-12-17T04:03:02.613Z,92.40
2022-12-17T04:05:48.530Z,92.40
2022-12-17T04:08:35.415Z,92.30
2022-12-17T04:11:20.808Z,92.20
2022-12-17T04:14:06.440Z,92.20
2022-12-17T04:16:51.828Z,92.30
2022-12-17T04:19:37.282Z,92.20
2022-12-17T04:22:22.670Z,92.10
2022-12-17T04:25:09.452Z,92.20
2022-12-17T04:27:54.900Z,91.90
2022-12-17T04:30:40.377Z,91.90
2022-12-17T04:33:25.999Z,92.20
2022-12-17T04:36:11.414Z,91.90
2022-12-17T04:38:56.756Z,91.80
2022-12-17T04:41:43.480Z,91.90
2022-12-17T04:44:28.802Z,92.10
2022-12-17T04:47:14.196Z,92.00
2022-12-17T04:49:59.744Z,92.10
2022-12-17T04:52:45.699Z,91.90
2022-12-17T04:55:31.177Z,91.80
2022-12-17T04:58:21.862Z,91.80
2022-12-17T05:01:10.323Z,91.70
2022-12-17T05:03:58.085Z,91.60
2022-12-17T05:06:43.979Z,91.60
2022-12-17T05:09:29.303Z,91.60
2022-12-17T05:12:14.785Z,91.60
2022-12-17T05:15:02.667Z,91.60
2022-12-17T05:17:48.655Z,91.50
2022-12-17T05:20:34.250Z,91.40
2022-12-17T05:23:24.269Z,91.30
2022-12-17T05:26:18.948Z,91.40
2022-12-17T05:29:04.420Z,91.30
2022-12-17T05:31:51.090Z,91.40
2022-12-17T05:34:36.658Z,91.40
2022-12-17T05:37:22.074Z,91.30
2022-12-17T05:40:12.384Z,91.30
2022-12-17T05:42:58.445Z,91.40
2022-12-17T05:45:43.902Z,91.40
2022-12-17T05:48:30.603Z,91.40
2022-12-17T05:51:16.157Z,91.30
2022-12-17T05:54:01.608Z,91.30
2022-12-17T05:56:47.138Z,91.10
2022-12-17T05:59:32.522Z,91.00
2022-12-17T06:02:17.881Z,91.00
2022-12-17T06:05:04.612Z,91.10
2022-12-17T06:07:50.148Z,91.10
2022-12-17T06:10:35.663Z,91.10
2022-12-17T06:13:21.251Z,91.00
2022-12-17T06:16:08.056Z,90.90
2022-12-17T06:18:53.810Z,90.80
2022-12-17T06:21:41.572Z,90.90
2022-12-17T06:24:32.361Z,90.70
2022-12-17T06:27:18.167Z,90.80
2022-12-17T06:30:04.264Z,90.80
2022-12-17T06:32:49.558Z,91.00
2022-12-17T06:35:37.225Z,90.80
2022-12-17T06:38:25.701Z,90.70
2022-12-17T06:41:11.540Z,90.70
2022-12-17T06:43:56.896Z,90.80
2022-12-17T06:46:42.515Z,90.80
2022-12-17T06:49:27.830Z,90.90
2022-12-17T06:52:13.208Z,90.90
2022-12-17T06:55:00.001Z,90.60
2022-12-17T06:57:50.196Z,90.50
2022-12-17T07:00:36.681Z,90.50
2022-12-17T07:03:22.362Z,90.50
2022-12-17T07:06:07.305Z,90.60
2022-12-17T07:08:53.097Z,90.40
2022-12-17T07:11:41.395Z,90.40
2022-12-17T07:14:26.890Z,90.40
2022-12-17T07:17:08.825Z,90.40
2022-12-17T07:19:54.338Z,90.40
2022-12-17T07:22:42.195Z,90.50
2022-12-17T07:25:27.839Z,90.50
2022-12-17T07:28:15.320Z,90.50
2022-12-17T07:31:00.831Z,90.40
2022-12-17T07:33:46.215Z,90.30
2022-12-17T07:36:31.672Z,90.40
2022-12-17T07:39:17.042Z,90.40
2022-12-17T07:42:02.380Z,90.40
2022-12-17T07:44:49.128Z,90.40
2022-12-17T07:47:34.595Z,90.50
2022-12-17T07:50:20.109Z,90.40
2022-12-17T07:53:17.951Z,90.40
2022-12-17T07:56:03.503Z,90.30
2022-12-17T07:58:49.586Z,90.50
2022-12-17T08:01:36.450Z,90.70
2022-12-17T08:04:21.890Z,90.60
2022-12-17T08:07:12.120Z,90.80
2022-12-17T08:09:58.749Z,91.10
2022-12-17T08:12:44.146Z,91.20
2022-12-17T08:15:29.753Z,91.10
2022-12-17T08:18:24.485Z,91.40
2022-12-17T08:21:11.720Z,91.50
2022-12-17T08:23:57.123Z,91.60
2022-12-17T08:26:47.580Z,91.70
2022-12-17T08:29:33.973Z,91.80
2022-12-17T08:32:19.675Z,92.10
2022-12-17T08:35:06.546Z,92.10
2022-12-17T08:37:53.040Z,92.10
2022-12-17T08:40:38.418Z,92.40
2022-12-17T08:43:24.669Z,92.40
2022-12-17T08:46:11.205Z,92.30
2022-12-17T08:49:05.029Z,92.20
2022-12-17T08:51:51.885Z,92.30
2022-12-17T08:54:37.755Z,92.30
2022-12-17T08:57:31.490Z,92.30
2022-12-17T09:00:17.862Z,92.20
2022-12-17T09:03:03.400Z,92.30
2022-12-17T09:05:49.276Z,92.30
2022-12-17T09:08:36.084Z,92.70
2022-12-17T09:11:21.533Z,93.30
2022-12-17T09:14:07.134Z,93.20
2022-12-17T09:16:52.618Z,93.40
2022-12-17T09:19:37.990Z,93.60
2022-12-17T09:22:23.466Z,93.80
2022-12-17T09:25:10.183Z,93.90
2022-12-17T09:27:55.585Z,94.00
2022-12-17T09:30:41.038Z,94.10
2022-12-17T09:33:26.504Z,94.20
2022-12-17T09:36:08.452Z,94.20
2022-12-17T09:38:54.006Z,94.30
2022-12-17T09:41:45.676Z,94.30
2022-12-17T09:44:38.713Z,94.20
2022-12-17T09:47:35.786Z,94.30
2022-12-17T09:50:24.062Z,94.20
2022-12-17T09:53:09.415Z,94.40
2022-12-17T09:56:02.363Z,94.40
2022-12-17T09:58:50.161Z,94.40
2022-12-17T10:01:37.677Z,94.60
2022-12-17T10:04:25.501Z,94.40
2022-12-17T10:07:10.950Z,94.50
2022-12-17T10:09:56.406Z,94.70
2022-12-17T10:12:43.023Z,94.70
2022-12-17T10:15:33.799Z,94.80
2022-12-17T10:18:25.213Z,94.80
2022-12-17T10:21:16.302Z,94.90
2022-12-17T10:24:02.348Z,94.70
2022-12-17T10:26:52.127Z,94.70
2022-12-17T10:29:47.110Z,94.60
2022-12-17T10:32:40.539Z,94.80
2022-12-17T10:35:30.491Z,94.80
2022-12-17T10:38:18.443Z,94.80
2022-12-17T10:41:04.059Z,94.80
2022-12-17T10:43:54.185Z,94.90
2022-12-17T10:46:43.898Z,95.10
2022-12-17T10:49:32.934Z,95.00
2022-12-17T10:52:20.772Z,95.00
2022-12-17T10:55:19.560Z,94.90
2022-12-17T10:58:07.722Z,95.00
2022-12-17T11:00:56.278Z,95.00
2022-12-17T11:03:44.791Z,95.00
2022-12-17T11:06:38.866Z,95.00
2022-12-17T11:09:36.898Z,95.00
2022-12-17T11:12:30.564Z,95.20
2022-12-17T11:15:23.004Z,94.90
2022-12-17T11:18:12.050Z,94.90
2022-12-17T11:21:07.527Z,95.00
2022-12-17T11:23:56.054Z,94.90
2022-12-17T11:26:45.202Z,95.20
2022-12-17T11:29:32.670Z,95.30
2022-12-17T11:32:33.071Z,95.20
2022-12-17T11:35:25.963Z,95.30
2022-12-17T11:38:18.865Z,95.50
2022-12-17T11:41:13.442Z,95.40
2022-12-17T11:44:07.749Z,95.50
2022-12-17T11:47:01.467Z,95.50
2022-12-17T11:49:56.175Z,95.60
2022-12-17T11:52:52.098Z,95.40
2022-12-17T11:55:47.181Z,95.70
2022-12-17T11:58:41.111Z,95.60
2022-12-17T12:01:36.371Z,95.80
2022-12-17T12:04:35.417Z,95.80
2022-12-17T12:07:27.863Z,95.90
2022-12-17T12:10:19.286Z,96.10
2022-12-17T12:13:16.585Z,96.00
2022-12-17T12:16:12.411Z,95.90
2022-12-17T12:19:05.061Z,96.00
2022-12-17T12:21:57.598Z,96.10
2022-12-17T12:25:02.366Z,96.00
2022-12-17T12:27:55.829Z,96.20
2022-12-17T12:30:48.280Z,96.30
2022-12-17T12:33:44.499Z,96.30
2022-12-17T12:36:33.942Z,96.40
2022-12-17T12:39:20.314Z,96.30
2022-12-17T12:42:11.865Z,96.80
2022-12-17T12:45:06.286Z,96.60
2022-12-17T12:48:02.488Z,96.50
2022-12-17T12:51:00.700Z,96.60
2022-12-17T12:53:54.615Z,96.60
2022-12-17T12:56:51.030Z,96.70
2022-12-17T12:59:45.114Z,96.60
2022-12-17T13:02:43.008Z,96.70
2022-12-17T13:05:35.795Z,96.70
2022-12-17T13:08:20.585Z,96.70
2022-12-17T13:10:49.832Z,96.90
2022-12-17T13:13:28.927Z,96.90
2022-12-17T13:16:02.521Z,96.90
2022-12-17T13:18:34.180Z,96.80
2022-12-17T13:21:05.536Z,96.90
2022-12-17T13:23:37.971Z,96.90
2022-12-17T13:26:24.999Z,97.00
2022-12-17T13:29:12.801Z,96.80
2022-12-17T13:31:49.226Z,96.90
2022-12-17T13:34:23.621Z,97.00
2022-12-17T13:37:00.788Z,96.90
2022-12-17T13:39:46.301Z,97.10
2022-12-17T13:42:19.907Z,97.10
2022-12-17T13:44:48.306Z,97.10
2022-12-17T13:47:23.116Z,97.00
2022-12-17T13:50:24.394Z,97.00
2022-12-17T13:52:40.963Z,97.00
2022-12-17T13:55:18.300Z,97.00
2022-12-17T13:57:47.515Z,97.00
2022-12-17T14:00:22.226Z,97.00
2022-12-17T14:02:51.478Z,96.90
2022-12-17T14:05:27.573Z,96.80
2022-12-17T14:07:58.268Z,96.90
2022-12-17T14:10:28.423Z,97.00
2022-12-17T14:13:05.591Z,96.90
2022-12-17T14:15:34.034Z,96.90
2022-12-17T14:18:03.275Z,96.90
2022-12-17T14:20:33.403Z,97.10
2022-12-17T14:23:03.414Z,97.00
2022-12-17T14:25:37.878Z,96.90
2022-12-17T14:28:08.301Z,96.90
2022-12-17T14:30:46.268Z,96.80
2022-12-17T14:33:28.681Z,96.80
2022-12-17T14:35:58.342Z,96.90
2022-12-17T14:38:37.859Z,96.90
2022-12-17T14:41:27.627Z,96.90
2022-12-17T14:44:00.750Z,97.20
2022-12-17T14:46:30.587Z,96.90
2022-12-17T14:49:03.755Z,96.80
2022-12-17T14:51:35.119Z,96.90
2022-12-17T14:54:20.120Z,97.00
2022-12-17T14:56:50.905Z,96.90
2022-12-17T14:59:35.687Z,96.90
2022-12-17T15:02:11.677Z,97.00
2022-12-17T15:04:40.615Z,96.90
2022-12-17T15:07:17.606Z,96.90
2022-12-17T15:09:46.003Z,96.90
2022-12-17T15:12:16.416Z,97.00
2022-12-17T15:14:44.409Z,97.10
2022-12-17T15:17:12.431Z,96.90
2022-12-17T15:19:40.463Z,97.20
2022-12-17T15:22:15.071Z,96.90
2022-12-17T15:24:43.333Z,96.80
2022-12-17T15:27:14.541Z,96.90
2022-12-17T15:29:44.230Z,96.80
2022-12-17T15:32:18.003Z,96.90
2022-12-17T15:34:46.133Z,96.90
2022-12-17T15:37:16.407Z,97.00
2022-12-17T15:39:46.803Z,97.10
2022-12-17T15:42:32.296Z,96.90
2022-12-17T15:45:01.691Z,96.80
2022-12-17T15:47:29.709Z,96.80
2022-12-17T15:49:57.741Z,96.80
2022-12-17T15:52:25.819Z,96.80
2022-12-17T15:54:53.874Z,96.80
2022-12-17T15:57:21.982Z,96.70
2022-12-17T15:59:51.365Z,96.70
2022-12-17T16:02:20.890Z,96.70
2022-12-17T16:04:49.034Z,96.60
2022-12-17T16:07:17.285Z,96.80
2022-12-17T16:09:45.331Z,96.70
2022-12-17T16:12:13.383Z,96.60
2022-12-17T16:14:41.491Z,96.60
2022-12-17T16:17:09.549Z,96.50
2022-12-17T16:19:38.882Z,96.60
2022-12-17T16:22:06.913Z,96.50
2022-12-17T16:24:34.935Z,96.40
2022-12-17T16:27:04.833Z,96.60
2022-12-17T16:29:33.380Z,96.50
2022-12-17T16:32:01.509Z,96.50
2022-12-17T16:34:29.532Z,96.50
2022-12-17T16:36:59.483Z,96.40
2022-12-17T16:39:27.540Z,96.30
2022-12-17T16:41:55.593Z,96.40
2022-12-17T16:44:23.648Z,96.40
2022-12-17T16:46:53.091Z,96.40
2022-12-17T16:49:23.253Z,96.30
2022-12-17T16:51:55.274Z,96.20
2022-12-17T16:54:30.684Z,96.10
2022-12-17T16:56:58.700Z,96.10
2022-12-17T16:59:26.701Z,96.10
2022-12-17T17:01:56.877Z,96.10
2022-12-17T17:04:25.215Z,96.10
2022-12-17T17:06:54.789Z,96.10
2022-12-17T17:09:24.079Z,96.20
2022-12-17T17:11:56.271Z,96.00
2022-12-17T17:14:24.941Z,96.00
2022-12-17T17:16:53.696Z,95.90
2022-12-17T17:19:21.828Z,96.10
2022-12-17T17:21:52.460Z,96.10
2022-12-17T17:24:22.871Z,95.90
2022-12-17T17:26:51.797Z,95.80
2022-12-17T17:29:22.206Z,95.70
2022-12-17T17:32:09.971Z,95.70
2022-12-17T17:34:39.327Z,95.60
2022-12-17T17:37:07.319Z,95.50
2022-12-17T17:39:35.553Z,95.40
2022-12-17T17:42:03.672Z,95.10
2022-12-17T17:44:33.247Z,95.00
2022-12-17T17:47:01.598Z,94.90
2022-12-17T17:49:29.831Z,95.00
2022-12-17T17:52:09.521Z,94.90
2022-12-17T17:54:39.375Z,94.80
2022-12-17T17:57:07.918Z,94.50
2022-12-17T17:59:40.204Z,94.40
2022-12-17T18:02:10.598Z,94.30
2022-12-17T18:04:39.795Z,94.30
2022-12-17T18:09:56.065Z,93.90
2022-12-17T18:12:41.283Z,93.90
2022-12-17T18:15:14.873Z,94.10
2022-12-17T18:17:44.498Z,94.10
2022-12-17T18:20:13.617Z,94.20
2022-12-17T18:22:41.872Z,94.20
2022-12-17T18:25:10.450Z,94.30
2022-12-17T18:27:38.624Z,94.20
2022-12-17T18:30:07.875Z,94.20
2022-12-17T18:32:37.252Z,94.20
2022-12-17T18:35:05.967Z,94.20
2022-12-17T18:37:33.996Z,94.10
2022-12-17T18:40:02.043Z,94.00
2022-12-17T18:42:47.898Z,94.10
2022-12-17T18:45:16.001Z,93.90
2022-12-17T18:47:45.358Z,93.80
2022-12-17T18:50:14.082Z,93.50
2022-12-17T18:52:42.376Z,93.40
2022-12-17T18:55:13.262Z,93.20
2022-12-17T18:57:41.606Z,93.00
2022-12-17T19:00:11.032Z,93.00
2022-12-17T19:02:39.285Z,92.90
2022-12-17T19:05:09.372Z,92.80
2022-12-17T19:07:37.522Z,92.60
2022-12-17T19:10:06.336Z,92.60
2022-12-17T19:12:34.344Z,92.50
2022-12-17T19:15:02.362Z,92.50
2022-12-17T19:17:30.442Z,92.40
2022-12-17T19:19:58.686Z,92.40
2022-12-17T19:22:28.107Z,92.20
2022-12-17T19:24:56.224Z,92.10
2022-12-17T19:27:24.963Z,92.10
2022-12-17T19:29:57.236Z,92.00
2022-12-17T19:32:25.991Z,92.00
2022-12-17T19:34:54.091Z,92.10
2022-12-17T19:37:22.165Z,92.00
2022-12-17T19:39:51.600Z,92.00
2022-12-17T19:42:25.421Z,91.70
2022-12-17T19:44:54.962Z,91.70
2022-12-17T19:47:23.727Z,91.50
2022-12-17T19:49:51.899Z,91.60
2022-12-17T19:52:19.976Z,91.50
2022-12-17T19:54:51.022Z,91.40
2022-12-17T19:57:19.018Z,91.40
2022-12-17T19:59:47.041Z,91.50
2022-12-17T20:02:17.234Z,91.50
2022-12-17T20:04:45.456Z,91.40
2022-12-17T20:07:13.525Z,91.40
2022-12-17T20:09:44.085Z,91.10
2022-12-17T20:12:13.815Z,90.70
2022-12-17T20:14:41.943Z,90.90
2022-12-17T20:17:10.842Z,91.00
2022-12-17T20:19:38.950Z,90.80
2022-12-17T20:22:07.724Z,90.80
2022-12-17T20:24:37.191Z,90.80
2022-12-17T20:27:05.785Z,90.60
2022-12-17T20:29:35.765Z,90.60
2022-12-17T20:32:04.311Z,90.60
2022-12-17T20:34:32.840Z,90.70
2022-12-17T20:37:00.868Z,90.50
2022-12-17T20:39:28.929Z,90.40
2022-12-17T20:41:57.743Z,90.40
2022-12-17T20:44:26.229Z,90.50
2022-12-17T20:46:55.786Z,90.30
2022-12-17T20:49:23.888Z,90.20
2022-12-17T20:51:51.918Z,90.10
2022-12-17T20:54:20.058Z,90.10
2022-12-17T20:56:48.167Z,90.10
2022-12-17T20:59:18.160Z,90.10
2022-12-17T21:01:51.462Z,90.00
2022-12-17T21:04:24.385Z,90.00
2022-12-17T21:06:52.892Z,89.90
2022-12-17T21:09:22.454Z,89.70
2022-12-17T21:11:50.678Z,90.00
2022-12-17T21:14:20.422Z,89.90
2022-12-17T21:16:48.971Z,89.70
2022-12-17T21:19:20.006Z,89.70
2022-12-17T21:21:49.726Z,89.70
2022-12-17T21:24:17.751Z,89.80
2022-12-17T21:26:47.005Z,89.70
2022-12-17T21:29:15.520Z,89.50
2022-12-17T21:31:45.567Z,89.60
2022-12-17T21:34:16.283Z,89.20
2022-12-17T21:36:44.536Z,89.10
2022-12-17T21:39:15.728Z,89.30
2022-12-17T21:42:05.854Z,89.00
2022-12-17T21:44:33.911Z,88.80
2022-12-17T21:47:02.191Z,88.70
2022-12-17T21:49:30.418Z,88.90
2022-12-17T21:51:59.971Z,88.80
2022-12-17T21:54:29.745Z,89.00
2022-12-17T21:56:57.796Z,88.80
2022-12-17T21:59:25.850Z,88.80
2022-12-17T22:01:57.266Z,88.80
2022-12-17T22:04:26.681Z,88.60
2022-12-17T22:06:58.145Z,88.80
2022-12-17T22:10:05.269Z,88.60
2022-12-17T22:12:45.620Z,88.30
2022-12-17T22:15:13.651Z,88.60
2022-12-17T22:17:42.770Z,88.60
2022-12-17T22:20:11.954Z,88.60
2022-12-17T22:22:39.995Z,88.90
2022-12-17T22:25:11.750Z,88.90
2022-12-17T22:27:41.501Z,88.50
2022-12-17T22:30:33.477Z,88.50
2022-12-17T22:33:02.454Z,88.50
2022-12-17T22:39:44.441Z,88.40
2022-12-17T22:42:51.933Z,88.20
2022-12-17T22:44:38.994Z,88.00
2022-12-17T22:44:51.935Z,88.40
2022-12-17T22:47:21.109Z,87.90
2022-12-17T22:49:49.693Z,87.80
2022-12-17T22:52:19.780Z,88.00
2022-12-17T22:54:48.786Z,87.90
2022-12-17T22:57:36.135Z,88.20
2022-12-17T23:00:10.595Z,88.40
2022-12-17T23:02:38.741Z,87.90
2022-12-17T23:05:07.379Z,88.00
2022-12-17T23:07:35.817Z,87.70
2022-12-17T23:10:04.233Z,87.80
2022-12-17T23:12:50.570Z,87.90
2022-12-17T23:15:21.379Z,88.30
2022-12-17T23:17:49.922Z,88.50
2022-12-17T23:20:18.129Z,88.10
2022-12-17T23:22:46.192Z,88.00
2022-12-17T23:25:15.843Z,87.90
2022-12-17T23:27:45.774Z,87.80
2022-12-17T23:30:15.760Z,87.80
2022-12-17T23:32:44.304Z,87.50
2022-12-17T23:35:13.316Z,87.70
2022-12-17T23:37:41.835Z,87.90
2022-12-17T23:40:11.755Z,87.40
2022-12-17T23:42:40.365Z,87.40
2022-12-17T23:45:11.914Z,87.50
2022-12-17T23:47:41.827Z,88.00
2022-12-17T23:50:11.731Z,87.60
2022-12-17T23:52:40.260Z,88.00
2022-12-17T23:55:08.861Z,87.70
2022-12-17T23:57:36.972Z,87.90
